Time;durP1;ratioP1;P1;durP2;ratioP2;P2;SDS_P1;SDS_P2;PMS_P1;PMS_P2;Temp;Humidity;BMP_temperature;BMP_pressure;BME280_temperature;BME280_humidity;BME280_pressure;Samples;Min_cycle;Max_cycle;Signal;HPM_P1;HPM_P2
2022/10/10 00:45:53;;;;;;;5.90;4.55;;;;;;;6.98;71.85;100270.22;5031826;28;20117;-52
2022/10/10 03:31:13;;;;;;;7.28;4.15;;;;;;;7.31;74.41;100174.22;5136072;27;20056;-54
2022/10/10 03:33:41;;;;;;;6.07;4.10;;;;;;;7.33;73.99;100171.16;5136420;27;20062;-54
2022/10/10 03:36:08;;;;;;;5.10;3.72;;;;;;;7.34;73.67;100167.25;5136278;27;20059;-53
2022/10/10 03:38:35;;;;;;;6.28;4.00;;;;;;;7.40;73.39;100170.78;5136510;27;20062;-53
2022/10/10 03:41:04;;;;;;;6.65;3.90;;;;;;;7.44;74.42;100174.59;5136499;27;20063;-53
2022/10/10 03:43:32;;;;;;;5.47;3.58;;;;;;;7.43;73.66;100170.16;5132110;27;20051;-53
2022/10/10 03:46:00;;;;;;;4.93;3.35;;;;;;;7.47;73.73;100171.19;5135592;27;20066;-54
2022/10/10 03:48:27;;;;;;;5.50;3.80;;;;;;;7.45;74.52;100167.91;5136043;27;20055;-53
2022/10/10 03:50:54;;;;;;;6.93;3.80;;;;;;;7.44;74.35;100169.06;5136380;27;20062;-52
2022/10/10 03:53:21;;;;;;;5.43;3.65;;;;;;;7.46;73.85;100172.34;5135975;27;20387;-54
2022/10/10 03:55:49;;;;;;;7.50;3.65;;;;;;;7.44;74.07;100171.81;5136363;27;20066;-53
2022/10/10 03:58:17;;;;;;;6.10;3.60;;;;;;;7.47;74.44;100165.66;5132135;27;20061;-54
2022/10/10 04:00:44;;;;;;;4.75;3.47;;;;;;;7.44;73.34;100171.81;5136172;27;20055;-54
2022/10/10 04:03:12;;;;;;;5.07;3.65;;;;;;;7.42;73.84;100168.53;5136051;27;20062;-54
2022/10/10 04:05:39;;;;;;;7.90;3.55;;;;;;;7.44;74.02;100166.28;5135950;27;20063;-53
2022/10/10 04:08:07;;;;;;;10.52;6.75;;;;;;;7.43;74.33;100159.06;5135734;27;20058;-51
2022/10/10 04:10:34;;;;;;;5.07;3.55;;;;;;;7.48;73.98;100167.31;5135643;27;20047;-54
2022/10/10 04:13:01;;;;;;;4.68;3.70;;;;;;;7.51;73.82;100161.16;5130170;27;20493;-53
2022/10/10 04:15:31;;;;;;;4.57;3.70;;;;;;;7.46;72.59;100164.03;5135505;27;20059;-54
2022/10/10 04:17:59;;;;;;;5.53;4.35;;;;;;;7.42;72.56;100157.44;5135772;27;20628;-54
2022/10/10 04:20:26;;;;;;;5.90;3.88;;;;;;;7.43;73.03;100159.91;5135690;27;20059;-54
2022/10/10 04:22:53;;;;;;;5.38;3.63;;;;;;;7.46;72.82;100155.72;5135493;27;20051;-53
2022/10/10 04:25:21;;;;;;;7.57;3.42;;;;;;;7.46;72.79;100155.72;5132398;27;20058;-53
2022/10/10 04:27:48;;;;;;;6.53;3.70;;;;;;;7.49;73.11;100152.31;5136840;27;20051;-52
2022/10/10 04:30:15;;;;;;;6.25;3.47;;;;;;;7.48;73.64;100151.50;5147893;27;20423;-53
2022/10/10 04:32:44;;;;;;;5.35;3.42;;;;;;;7.46;73.59;100153.75;5133713;27;20503;-50
2022/10/10 04:35:11;;;;;;;4.20;2.88;;;;;;;7.41;72.69;100145.53;5156145;27;20104;-54
2022/10/10 04:37:38;;;;;;;4.45;3.00;;;;;;;7.45;73.64;100145.75;5151515;27;20504;-53
2022/10/10 04:40:06;;;;;;;3.70;3.10;;;;;;;7.40;73.55;100145.84;5138049;27;20190;-53
2022/10/10 04:42:34;;;;;;;4.82;3.17;;;;;;;7.43;73.63;100145.22;5133605;27;20423;-54
2022/10/10 04:45:01;;;;;;;5.93;4.53;;;;;;;7.44;73.55;100144.94;5133451;27;20055;-53
2022/10/10 04:47:28;;;;;;;7.57;4.53;;;;;;;7.39;73.32;100133.09;5151702;27;20058;-54
2022/10/10 04:49:57;;;;;;;6.13;4.45;;;;;;;7.42;73.43;100140.81;5134593;27;20069;-53
2022/10/10 04:52:24;;;;;;;6.88;4.25;;;;;;;7.42;73.61;100147.19;5133519;27;20478;-55
2022/10/10 04:54:51;;;;;;;6.88;3.70;;;;;;;7.44;72.46;100152.44;5147746;27;20059;-53
2022/10/10 04:57:19;;;;;;;7.05;3.30;;;;;;;7.48;72.54;100145.97;5149105;27;20066;-54
2022/10/10 04:59:46;;;;;;;6.00;4.03;;;;;;;7.50;73.28;100142.91;5139806;27;20057;-54
2022/10/10 05:02:13;;;;;;;7.32;4.50;;;;;;;7.43;73.49;100139.69;5148304;27;20066;-42
2022/10/10 05:04:40;;;;;;;5.35;3.72;;;;;;;7.45;73.02;100145.75;5153129;27;20059;-55
2022/10/10 05:07:09;;;;;;;4.60;3.70;;;;;;;7.48;72.72;100134.06;5139730;27;20055;-56
2022/10/10 05:09:36;;;;;;;7.55;5.30;;;;;;;7.52;73.36;100140.66;5135413;27;20058;-56
2022/10/10 05:12:04;;;;;;;6.28;3.70;;;;;;;7.56;72.64;100141.69;5138066;27;20426;-56
2022/10/10 05:14:31;;;;;;;5.00;3.35;;;;;;;7.57;72.61;100136.97;5130442;27;20066;-56
2022/10/10 05:16:58;;;;;;;5.68;3.30;;;;;;;7.64;72.89;100138.25;5133699;27;20051;-56
2022/10/10 05:19:26;;;;;;;4.38;2.92;;;;;;;7.67;72.08;100136.81;5134205;27;20051;-56
2022/10/10 05:21:53;;;;;;;3.58;2.70;;;;;;;7.66;72.05;100141.50;5134382;27;20073;-56
2022/10/10 05:24:22;;;;;;;3.95;3.08;;;;;;;7.64;71.44;100138.25;5134390;27;20065;-55
2022/10/10 05:26:50;;;;;;;4.00;2.67;;;;;;;7.52;71.41;100141.47;5129585;27;20051;-56
2022/10/10 05:29:17;;;;;;;4.68;3.38;;;;;;;7.60;71.49;100139.13;5133728;27;20084;-56
2022/10/10 05:31:44;;;;;;;4.10;3.03;;;;;;;7.61;72.47;100138.00;5131575;27;20470;-56
2022/10/10 05:34:13;;;;;;;6.00;2.90;;;;;;;7.64;72.53;100138.25;5133244;27;20487;-57
2022/10/10 05:36:40;;;;;;;4.97;4.50;;;;;;;7.65;72.17;100136.28;5134073;27;20062;-57
2022/10/10 05:39:08;;;;;;;6.32;3.50;;;;;;;7.69;71.64;100135.38;5130902;27;20058;-57
2022/10/10 05:41:37;;;;;;;5.60;3.40;;;;;;;7.65;71.73;100139.88;5132590;27;20051;-57
2022/10/10 05:44:04;;;;;;;4.82;3.15;;;;;;;7.66;71.79;100133.19;5133811;27;20491;-57
2022/10/10 05:46:31;;;;;;;6.50;3.58;;;;;;;7.71;72.40;100144.19;5133476;27;20055;-57
2022/10/10 05:48:58;;;;;;;7.28;4.07;;;;;;;7.74;72.19;100126.13;5133864;27;20055;-57
2022/10/10 05:51:26;;;;;;;6.72;3.90;;;;;;;7.76;71.39;100134.16;5133317;27;20423;-57
2022/10/10 05:53:53;;;;;;;6.63;3.83;;;;;;;7.79;71.61;100130.75;5131792;27;20070;-55
2022/10/10 05:56:22;;;;;;;4.88;4.13;;;;;;;7.79;71.50;100131.59;5134168;27;20054;-57
2022/10/10 05:58:51;;;;;;;5.10;3.80;;;;;;;7.83;72.70;100140.13;5133632;27;20055;-57
2022/10/10 06:01:18;;;;;;;6.77;4.03;;;;;;;7.86;72.89;100153.38;5133581;27;20065;-55
2022/10/10 06:03:51;;;;;;;7.10;4.63;;;;;;;7.93;71.33;100151.03;5133412;27;20809;-56
2022/10/10 06:06:19;;;;;;;8.07;4.53;;;;;;;7.94;71.51;100147.16;5133223;27;20062;-56
2022/10/10 06:08:46;;;;;;;5.60;3.83;;;;;;;8.01;72.35;100155.06;5139430;27;20058;-57
2022/10/10 06:11:14;;;;;;;7.20;4.07;;;;;;;8.07;72.14;100142.75;5151422;27;20054;-56
2022/10/10 06:13:42;;;;;;;6.00;3.95;;;;;;;8.14;71.86;100152.28;5151452;27;20055;-55
2022/10/10 06:16:10;;;;;;;6.05;4.32;;;;;;;8.20;73.05;100141.94;5147648;27;20510;-57
2022/10/10 06:18:37;;;;;;;7.85;3.90;;;;;;;8.32;72.92;100141.44;5153970;27;20054;-56
2022/10/10 06:21:07;;;;;;;8.15;3.55;;;;;;;8.47;72.78;100143.94;5145630;27;20055;-57
2022/10/10 06:23:35;;;;;;;3.97;3.17;;;;;;;8.53;71.71;100139.13;5139207;27;20218;-56
2022/10/10 06:26:03;;;;;;;6.75;4.13;;;;;;;9.05;71.49;100136.03;5144565;27;20063;-55
2022/10/10 06:28:35;;;;;;;4.60;3.65;;;;;;;10.09;69.72;100130.44;5124707;27;20054;-57
2022/10/10 06:31:04;;;;;;;5.45;3.60;;;;;;;11.05;67.31;100136.34;5126950;27;20059;-57
2022/10/10 06:33:33;;;;;;;7.85;3.85;;;;;;;11.92;63.86;100133.53;5117623;27;20066;-57
2022/10/10 06:36:05;;;;;;;7.38;4.05;;;;;;;12.83;61.08;100133.31;5114215;27;20132;-56
2022/10/10 06:38:32;;;;;;;4.53;2.65;;;;;;;13.58;58.99;100127.84;5116324;27;20082;-57
2022/10/10 06:41:02;;;;;;;4.88;3.20;;;;;;;14.34;57.03;100125.72;5115140;27;20066;-57
2022/10/10 06:43:29;;;;;;;4.65;3.13;;;;;;;15.07;54.86;100129.72;5121930;27;20058;-57
2022/10/10 06:45:57;;;;;;;6.30;3.40;;;;;;;15.59;52.32;100137.28;5122643;27;20058;-56
2022/10/10 06:48:25;;;;;;;6.07;2.80;;;;;;;16.42;50.80;100129.97;5131054;27;20058;-57
2022/10/10 06:51:02;;;;;;;5.00;2.83;;;;;;;17.24;48.43;100127.50;5112149;28;20067;-56
2022/10/10 06:53:29;;;;;;;4.20;2.80;;;;;;;18.13;47.16;100120.06;5141901;27;20062;-57
2022/10/10 06:55:57;;;;;;;6.63;3.40;;;;;;;18.65;44.69;100124.22;5143204;27;20074;-57
2022/10/10 06:58:26;;;;;;;6.55;2.60;;;;;;;18.98;44.37;100136.88;5149659;27;20057;-57
2022/10/10 07:00:54;;;;;;;6.53;2.60;;;;;;;19.64;42.67;100134.53;5139992;27;20055;-57
2022/10/10 07:03:22;;;;;;;6.30;2.92;;;;;;;20.08;42.75;100127.41;5133261;27;20471;-57
2022/10/10 07:05:50;;;;;;;6.57;2.72;;;;;;;20.60;41.21;100122.66;5146445;27;20054;-57
2022/10/10 07:08:20;;;;;;;8.53;2.80;;;;;;;20.99;40.56;100127.81;5143618;27;20057;-58
2022/10/10 07:10:47;;;;;;;;;;;;;;;20.80;39.79;100130.91;5138583;27;20840;-57
2022/10/10 07:13:15;;;;;;;3.65;2.42;;;;;;;21.60;40.11;100131.00;5143840;27;19919;-57
2022/10/10 07:15:42;;;;;;;6.82;3.08;;;;;;;22.60;37.64;100121.94;5134789;27;20463;-57
2022/10/10 07:18:10;;;;;;;6.00;2.90;;;;;;;23.26;36.97;100117.84;5136215;27;20071;-57
2022/10/10 07:20:37;;;;;;;6.07;3.42;;;;;;;23.55;36.18;100121.41;5147873;27;20058;-57
2022/10/10 07:23:05;;;;;;;14.90;3.88;;;;;;;24.76;34.10;100121.94;5145336;27;20058;-57
2022/10/10 07:25:33;;;;;;;9.73;3.50;;;;;;;25.66;32.83;100129.53;5142625;27;20058;-57
2022/10/10 07:28:00;;;;;;;5.22;3.22;;;;;;;26.20;31.39;100118.22;5149388;27;20058;-57
2022/10/10 07:30:28;;;;;;;6.22;2.75;;;;;;;26.86;30.40;100121.72;5143870;27;20051;-57
2022/10/10 07:32:55;;;;;;;5.53;2.78;;;;;;;27.60;29.36;100117.88;5126357;27;20055;-57
2022/10/10 07:35:23;;;;;;;4.13;2.45;;;;;;;27.89;29.05;100116.03;5134628;27;20059;-58
2022/10/10 07:37:55;;;;;;;6.53;2.85;;;;;;;28.76;27.88;100116.91;5144302;27;20058;-56
2022/10/10 07:40:23;;;;;;;4.25;2.67;;;;;;;29.32;27.33;100120.31;5149084;27;20047;-58
2022/10/10 07:42:52;;;;;;;5.72;2.45;;;;;;;29.67;27.74;100117.69;5154799;27;20049;-57
2022/10/10 07:45:19;;;;;;;4.88;2.70;;;;;;;30.30;26.33;100119.09;5134042;27;20089;-57
2022/10/10 07:47:46;;;;;;;5.30;2.83;;;;;;;31.00;25.75;100116.38;5147982;27;20061;-57
2022/10/10 07:50:14;;;;;;;4.60;2.80;;;;;;;31.32;25.10;100117.31;5145922;27;20478;-58
2022/10/10 07:52:42;;;;;;;3.75;2.35;;;;;;;31.87;24.35;100125.56;5136068;27;20522;-57
2022/10/10 07:55:10;;;;;;;4.80;2.60;;;;;;;32.30;23.67;100116.06;5141797;27;20059;-57
2022/10/10 07:57:37;;;;;;;2.97;2.30;;;;;;;31.47;24.52;100124.16;5145384;27;20051;-57
2022/10/10 08:00:09;;;;;;;4.07;2.00;;;;;;;31.02;25.11;100115.94;5132146;27;20054;-57
2022/10/10 08:02:36;;;;;;;3.70;2.05;;;;;;;30.68;25.71;100118.28;5144861;27;20054;-57
2022/10/10 08:05:04;;;;;;;3.53;2.28;;;;;;;30.13;25.41;100126.16;5143114;27;20059;-56
2022/10/10 08:07:33;;;;;;;5.35;2.25;;;;;;;29.37;26.50;100124.69;5136360;27;20055;-56
2022/10/10 08:10:01;;;;;;;4.25;2.10;;;;;;;29.13;27.11;100121.28;5135908;27;20050;-56
2022/10/10 08:12:28;;;;;;;5.37;2.20;;;;;;;28.84;27.31;100121.19;5142458;27;20047;-56
2022/10/10 08:14:58;;;;;;;5.45;2.47;;;;;;;28.55;28.27;100121.91;5134785;27;20484;-56
2022/10/10 08:17:28;;;;;;;5.38;2.33;;;;;;;27.69;29.43;100120.94;5144817;27;20498;-56
2022/10/10 08:19:56;;;;;;;4.05;2.10;;;;;;;27.94;29.15;100118.38;5147574;27;20057;-56
2022/10/10 08:22:25;;;;;;;4.07;2.10;;;;;;;27.65;29.57;100123.06;5152136;27;20057;-56
2022/10/10 08:24:55;;;;;;;4.72;2.13;;;;;;;26.75;30.94;100132.50;5133892;27;20053;-55
2022/10/10 08:27:22;;;;;;;4.68;2.30;;;;;;;28.22;28.79;100123.91;5131607;27;20503;-55
2022/10/10 08:29:50;;;;;;;4.38;2.03;;;;;;;28.44;28.58;100127.06;5141492;27;21419;-56
2022/10/10 08:32:18;;;;;;;3.90;2.33;;;;;;;28.58;28.01;100131.66;5127950;27;20055;-57
2022/10/10 08:34:46;;;;;;;3.35;2.00;;;;;;;28.50;28.52;100131.06;5116948;27;20051;-57
2022/10/10 08:37:13;;;;;;;4.85;2.20;;;;;;;29.26;27.48;100127.06;5131474;27;20063;-56
2022/10/10 08:39:41;;;;;;;3.17;2.10;;;;;;;29.19;27.72;100132.97;5140526;27;20070;-57
2022/10/10 08:42:16;;;;;;;5.30;2.33;;;;;;;28.95;27.88;100131.09;5146867;27;20050;-58
2022/10/10 08:44:48;;;;;;;4.35;2.17;;;;;;;29.31;27.82;100126.50;5142219;27;20063;-57
2022/10/10 08:47:18;;;;;;;5.05;2.47;;;;;;;29.46;27.46;100127.72;5145850;27;20057;-57
2022/10/10 08:49:52;;;;;;;4.15;2.35;;;;;;;29.57;27.75;100138.91;5154443;27;20055;-56
2022/10/10 08:52:30;;;;;;;3.63;1.90;;;;;;;30.13;26.54;100126.16;5145303;27;20057;-57
2022/10/10 08:55:00;;;;;;;4.65;2.15;;;;;;;29.65;28.25;100128.81;5135836;27;20066;-57
2022/10/10 08:57:30;;;;;;;4.28;2.10;;;;;;;31.00;26.13;100135.72;5133774;27;20066;-57
2022/10/10 09:00:04;;;;;;;5.07;2.63;;;;;;;31.18;25.36;100132.19;5150194;27;20054;-57
2022/10/10 09:02:39;;;;;;;4.32;2.15;;;;;;;30.49;26.47;100131.63;5130409;27;20128;-57
2022/10/10 09:05:19;;;;;;;4.68;2.50;;;;;;;29.38;27.78;100132.06;5142799;27;20051;-57
2022/10/10 09:08:13;;;;;;;3.67;2.42;;;;;;;29.52;27.73;100127.97;5131265;27;20055;-57
2022/10/10 09:10:51;;;;;;;4.07;2.33;;;;;;;30.13;27.56;100126.16;5142612;27;20509;-57
2022/10/10 09:13:31;;;;;;;5.47;2.38;;;;;;;29.78;27.71;100126.03;5153006;27;20051;-57
2022/10/10 09:16:00;;;;;;;3.35;2.17;;;;;;;31.07;26.22;100129.72;5150936;27;20482;-57
2022/10/10 09:18:45;;;;;;;3.45;2.10;;;;;;;31.61;25.31;100127.81;5133984;27;20063;-57
2022/10/10 09:21:17;;;;;;;5.50;2.28;;;;;;;31.74;25.26;100131.41;5126352;27;20075;-57
2022/10/10 09:23:53;;;;;;;4.50;2.05;;;;;;;31.17;25.18;100137.16;5133567;27;20066;-57
2022/10/10 09:26:25;;;;;;;4.63;2.15;;;;;;;31.87;25.62;100135.00;5151640;27;20055;-56
2022/10/10 09:28:58;;;;;;;4.15;2.10;;;;;;;32.91;24.31;100135.81;5140795;27;20395;-56
2022/10/10 09:31:35;;;;;;;5.95;2.47;;;;;;;33.54;24.58;100137.16;5150499;27;20050;-57
2022/10/10 09:34:11;;;;;;;3.63;2.10;;;;;;;33.64;23.60;100142.94;5132134;27;20055;-56
2022/10/10 09:36:41;;;;;;;4.50;2.10;;;;;;;34.03;22.71;100146.09;5127663;27;20070;-57
2022/10/10 09:39:20;;;;;;;4.45;2.80;;;;;;;34.98;21.71;100136.06;5147048;27;20130;-57
2022/10/10 09:41:54;;;;;;;6.85;2.10;;;;;;;36.14;20.61;100138.16;5144840;27;20063;-57
2022/10/10 09:44:22;;;;;;;5.78;2.33;;;;;;;35.35;21.50;100147.41;5154530;27;20058;-57
2022/10/10 09:46:52;;;;;;;4.60;2.03;;;;;;;34.48;21.67;100147.25;5151822;27;20062;-57
2022/10/10 09:49:20;;;;;;;4.88;2.47;;;;;;;35.12;21.36;100141.13;5141601;27;20062;-57
2022/10/10 09:51:50;;;;;;;3.05;2.17;;;;;;;34.55;21.36;100141.13;5145265;27;20060;-57
2022/10/10 09:54:19;;;;;;;5.78;2.10;;;;;;;34.00;21.96;100145.00;5139667;27;20059;-58
2022/10/10 09:56:51;;;;;;;4.72;2.20;;;;;;;33.67;22.83;100136.22;5153261;27;20055;-57
2022/10/10 09:59:39;;;;;;;4.13;2.13;;;;;;;33.73;22.52;100145.84;5146933;27;20066;-57
2022/10/10 10:02:14;;;;;;;3.70;2.20;;;;;;;32.79;23.17;100139.63;5152086;27;20059;-57
2022/10/10 10:04:41;;;;;;;4.90;2.15;;;;;;;32.47;24.06;100145.44;5143046;27;20046;-57
2022/10/10 10:07:25;;;;;;;4.50;2.10;;;;;;;32.15;24.32;100147.53;5143442;27;20073;-57
2022/10/10 10:09:58;;;;;;;6.55;2.50;;;;;;;32.06;24.04;100140.91;5145683;27;20051;-57
2022/10/10 10:12:29;;;;;;;4.80;2.22;;;;;;;32.88;23.66;100143.31;5145549;27;20498;-56
2022/10/10 10:15:02;;;;;;;6.03;2.08;;;;;;;32.64;23.77;100146.00;5140316;27;20051;-57
2022/10/10 10:17:30;;;;;;;3.60;2.08;;;;;;;32.58;22.90;100136.38;5139757;27;20055;-57
2022/10/10 10:19:57;;;;;;;4.97;2.05;;;;;;;32.63;23.29;100150.16;5145217;27;20054;-57
2022/10/10 10:22:31;;;;;;;3.63;2.13;;;;;;;32.11;23.72;100148.94;5136965;27;20062;-57
2022/10/10 10:24:59;;;;;;;6.30;2.42;;;;;;;32.62;23.47;100144.88;5135609;27;20055;-57
2022/10/10 10:27:28;;;;;;;4.15;2.40;;;;;;;33.16;22.41;100152.88;5129138;27;20047;-57
2022/10/10 10:29:57;;;;;;;5.28;2.40;;;;;;;32.07;24.33;100160.59;5131769;27;20055;-56
2022/10/10 10:32:40;;;;;;;5.93;2.30;;;;;;;32.60;23.90;100153.19;5106500;27;20059;-57
2022/10/10 10:35:20;;;;;;;4.25;2.22;;;;;;;32.28;23.52;100158.97;5095575;27;20051;-57
2022/10/10 10:38:01;;;;;;;4.75;2.70;;;;;;;32.84;23.79;100154.22;5099449;28;20059;-57
2022/10/10 10:40:34;;;;;;;5.18;2.40;;;;;;;34.41;21.45;100156.28;5097626;27;20066;-58
2022/10/10 10:43:32;;;;;;;7.60;2.53;;;;;;;33.82;22.42;100156.59;5096997;27;20066;-57
2022/10/10 10:46:09;;;;;;;6.10;2.30;;;;;;;33.02;22.83;100159.22;5095872;28;20051;-58
2022/10/10 10:48:42;;;;;;;5.70;2.55;;;;;;;32.91;23.28;100164.66;5098212;28;20047;-57
2022/10/10 10:51:32;;;;;;;3.72;2.13;;;;;;;33.40;22.72;100171.66;5098359;28;20055;-58
2022/10/10 10:54:11;;;;;;;4.40;1.90;;;;;;;33.31;22.22;100158.03;5097757;28;20431;-57
2022/10/10 10:56:47;;;;;;;5.03;2.38;;;;;;;34.67;20.68;100153.78;5101694;28;20058;-57
2022/10/10 10:59:36;;;;;;;4.20;1.63;;;;;;;33.11;21.61;100164.25;5101019;27;20680;-57
2022/10/10 11:02:26;;;;;;;4.40;1.98;;;;;;;32.52;22.06;100167.06;5098215;28;20047;-58
2022/10/10 11:05:03;;;;;;;5.60;1.92;;;;;;;32.47;22.40;100156.16;5096168;28;20083;-56
2022/10/10 11:07:36;;;;;;;4.80;2.08;;;;;;;31.45;23.43;100157.56;5093847;28;20756;-58
2022/10/10 11:10:15;;;;;;;4.88;2.00;;;;;;;31.00;23.47;100173.13;5093044;28;20055;-58
2022/10/10 11:12:55;;;;;;;6.20;2.03;;;;;;;30.28;24.95;100156.09;5094561;27;20047;-57
2022/10/10 11:15:29;;;;;;;3.75;1.80;;;;;;;29.79;25.19;100170.69;5095601;28;20105;-56
2022/10/10 11:18:03;;;;;;;4.03;1.83;;;;;;;30.79;24.22;100177.50;5094724;28;20186;-56
2022/10/10 11:20:36;;;;;;;5.47;2.17;;;;;;;30.41;25.09;100176.22;5094866;28;20062;-56
2022/10/10 11:23:10;;;;;;;4.95;2.10;;;;;;;30.68;24.62;100178.66;5096087;28;20055;-57
2022/10/10 11:25:45;;;;;;;5.40;2.28;;;;;;;30.35;25.19;100167.38;5090012;28;20056;-57
2022/10/10 11:28:18;;;;;;;5.50;2.33;;;;;;;29.50;25.43;100194.44;5092530;28;20077;-57
2022/10/10 11:30:52;;;;;;;4.68;1.90;;;;;;;28.88;26.87;100170.66;5106863;28;20396;-57
2022/10/10 11:33:23;;;;;;;4.63;1.65;;;;;;;27.33;29.23;100182.53;5132492;28;20059;-56
2022/10/10 11:35:55;;;;;;;4.05;2.00;;;;;;;27.84;28.82;100173.75;5123136;27;20419;-57
2022/10/10 11:38:29;;;;;;;4.63;1.83;;;;;;;29.02;26.81;100172.31;5115571;27;20058;-56
2022/10/10 11:41:01;;;;;;;5.38;2.13;;;;;;;28.56;27.37;100166.53;5116268;27;20515;-57
2022/10/10 11:43:36;;;;;;;5.00;2.33;;;;;;;28.66;27.78;100164.63;5129069;27;20055;-56
2022/10/10 11:46:13;;;;;;;9.75;2.70;;;;;;;28.08;28.12;100171.66;5131885;28;20047;-56
2022/10/10 11:48:51;;;;;;;5.60;2.30;;;;;;;28.80;27.51;100157.75;5132457;28;20059;-56
2022/10/10 11:51:27;;;;;;;6.95;2.40;;;;;;;30.12;26.80;100170.53;5117768;27;20414;-56
2022/10/10 11:54:01;;;;;;;6.30;2.03;;;;;;;28.92;26.84;100165.63;5115204;27;20066;-57
2022/10/10 11:56:35;;;;;;;5.60;2.30;;;;;;;27.82;28.80;100179.13;5130610;27;20047;-56
2022/10/10 11:59:08;;;;;;;4.63;1.92;;;;;;;27.27;29.52;100167.13;5136018;27;20506;-56
2022/10/10 12:01:39;;;;;;;4.47;1.88;;;;;;;27.00;30.03;100164.31;5135242;27;20043;-55
2022/10/10 12:04:06;;;;;;;5.88;2.20;;;;;;;27.17;29.88;100165.22;5135893;27;20431;-56
2022/10/10 12:06:38;;;;;;;4.75;2.08;;;;;;;27.71;29.28;100162.19;5118928;27;20055;-57
2022/10/10 12:09:10;;;;;;;4.38;2.00;;;;;;;27.77;29.36;100161.69;5115031;27;20070;-57
2022/10/10 12:11:43;;;;;;;7.82;2.85;;;;;;;27.48;29.47;100157.31;5113351;27;20098;-57
2022/10/10 12:14:16;;;;;;;7.88;2.35;;;;;;;27.26;30.01;100161.88;5114316;27;20055;-57
2022/10/10 12:16:44;;;;;;;5.47;2.20;;;;;;;26.70;30.56;100171.75;5120368;27;20062;-56
2022/10/10 12:19:18;;;;;;;8.50;2.05;;;;;;;26.45;30.44;100162.75;5116102;27;20070;-57
2022/10/10 12:21:57;;;;;;;5.82;3.05;;;;;;;26.20;31.21;100172.47;5113637;27;20100;-56
2022/10/10 12:24:26;;;;;;;6.85;2.50;;;;;;;26.07;31.71;100169.41;5114271;27;20046;-57
2022/10/10 12:27:26;;;;;;;6.50;2.15;;;;;;;26.48;31.17;100171.28;5114254;27;20048;-56
2022/10/10 12:30:17;;;;;;;6.10;2.40;;;;;;;25.67;32.08;100168.25;5117985;27;20054;-55
2022/10/10 12:32:45;;;;;;;7.72;2.50;;;;;;;25.55;32.33;100165.94;5114848;27;20486;-56
2022/10/10 12:35:33;;;;;;;3.60;1.98;;;;;;;24.69;33.91;100167.53;5118109;27;20059;-56
2022/10/10 12:38:15;;;;;;;6.07;1.80;;;;;;;25.07;33.11;100165.59;5121138;27;20407;-56
2022/10/10 12:41:06;;;;;;;9.05;2.45;;;;;;;25.23;33.85;100158.56;5116499;27;20110;-56
2022/10/10 12:43:44;;;;;;;5.10;1.98;;;;;;;25.43;33.59;100168.13;5113905;27;21359;-56
2022/10/10 12:46:24;;;;;;;8.20;2.22;;;;;;;25.17;34.00;100168.75;5116413;27;20055;-56
2022/10/10 12:49:04;;;;;;;5.07;1.85;;;;;;;24.38;35.10;100175.06;5118631;27;20069;-56
2022/10/10 12:51:34;;;;;;;10.40;2.50;;;;;;;24.21;35.32;100176.78;5116472;27;20065;-56
2022/10/10 12:54:05;;;;;;;6.72;2.47;;;;;;;24.13;35.37;100167.50;5120212;27;20066;-56
2022/10/10 12:56:42;;;;;;;8.00;2.58;;;;;;;24.22;35.24;100179.22;5120816;27;20051;-55
2022/10/10 12:59:20;;;;;;;4.85;2.42;;;;;;;24.27;34.83;100158.03;5134049;27;20051;-55
2022/10/10 13:01:53;;;;;;;7.38;2.47;;;;;;;24.33;35.01;100169.81;5134046;27;20051;-56
2022/10/10 13:04:21;;;;;;;7.13;2.30;;;;;;;23.80;35.98;100174.56;5125174;27;20059;-55
2022/10/10 13:06:52;;;;;;;7.90;2.50;;;;;;;23.53;37.38;100171.38;5114595;27;20459;-56
2022/10/10 13:09:22;;;;;;;10.95;2.67;;;;;;;23.42;37.23;100166.53;5115485;27;20059;-56
2022/10/10 13:11:54;;;;;;;6.95;2.65;;;;;;;23.68;36.62;100164.41;5116920;27;20051;-57
2022/10/10 13:14:24;;;;;;;4.35;2.33;;;;;;;24.09;36.44;100164.66;5113679;27;20060;-55
2022/10/10 13:16:52;;;;;;;5.15;2.05;;;;;;;24.26;36.81;100170.66;5116815;27;20756;-56
2022/10/10 13:19:21;;;;;;;9.35;3.08;;;;;;;24.35;36.22;100162.47;5127205;27;20055;-54
2022/10/10 13:21:51;;;;;;;8.43;2.50;;;;;;;24.42;35.57;100159.59;5134127;27;20055;-56
2022/10/10 13:24:21;;;;;;;4.32;2.20;;;;;;;24.31;36.56;100162.47;5126532;27;20450;-56
2022/10/10 13:26:51;;;;;;;11.43;3.03;;;;;;;23.77;36.45;100159.13;5114288;27;20066;-54
2022/10/10 13:29:30;;;;;;;9.38;2.58;;;;;;;23.87;37.42;100168.81;5115568;27;20068;-56
2022/10/10 13:32:00;;;;;;;8.15;2.85;;;;;;;23.59;37.62;100161.19;5117377;27;20046;-57
2022/10/10 13:34:30;;;;;;;5.90;2.50;;;;;;;23.95;37.12;100170.41;5115976;27;20522;-54
2022/10/10 13:37:01;;;;;;;7.68;2.90;;;;;;;23.69;36.86;100169.69;5119318;27;20119;-57
2022/10/10 13:39:31;;;;;;;8.68;3.30;;;;;;;23.62;38.04;100177.41;5123947;27;20058;-55
2022/10/10 13:41:59;;;;;;;6.03;2.70;;;;;;;23.67;38.17;100177.00;5129491;27;20055;-55
2022/10/10 13:44:33;;;;;;;8.82;2.63;;;;;;;23.60;37.93;100174.19;5120280;27;20054;-55
2022/10/10 13:47:34;;;;;;;7.60;2.33;;;;;;;23.38;38.51;100177.09;5114239;27;20051;-57
2022/10/10 13:50:02;;;;;;;10.45;2.70;;;;;;;23.35;38.95;100177.91;5117776;27;20058;-56
2022/10/10 13:52:30;;;;;;;6.45;2.67;;;;;;;23.60;38.74;100182.72;5117213;27;20493;-56
2022/10/10 13:55:14;;;;;;;9.52;3.30;;;;;;;23.96;37.88;100189.13;5114935;27;20059;-56
2022/10/10 13:57:42;;;;;;;10.20;2.67;;;;;;;23.88;38.27;100194.03;5116919;27;20059;-56
2022/10/10 14:00:17;;;;;;;8.77;2.75;;;;;;;24.07;37.80;100189.06;5114099;27;20066;-56
2022/10/10 14:02:45;;;;;;;7.70;2.80;;;;;;;24.07;38.29;100194.75;5112733;27;20533;-56
2022/10/10 14:05:17;;;;;;;7.50;3.08;;;;;;;23.90;38.21;100191.56;5116643;27;20062;-56
2022/10/10 14:07:49;;;;;;;9.68;2.92;;;;;;;24.12;38.12;100202.84;5122116;27;20109;-55
2022/10/10 14:10:22;;;;;;;11.32;3.28;;;;;;;24.58;37.82;100196.09;5132427;27;20061;-56
2022/10/10 14:12:51;;;;;;;8.05;2.85;;;;;;;25.09;36.69;100194.50;5133298;27;20063;-56
2022/10/10 14:15:36;;;;;;;7.75;2.72;;;;;;;25.57;35.84;100197.72;5132242;27;20055;-56
2022/10/10 14:18:15;;;;;;;7.88;3.30;;;;;;;26.10;34.92;100205.66;5127752;27;20499;-55
2022/10/10 14:20:43;;;;;;;7.38;3.25;;;;;;;26.05;34.71;100211.03;5112140;27;20389;-56
2022/10/10 14:23:10;;;;;;;7.50;2.78;;;;;;;26.04;35.30;100198.81;5111325;27;20058;-57
2022/10/10 14:25:39;;;;;;;7.90;2.80;;;;;;;26.10;34.88;100202.81;5111222;27;20062;-57
2022/10/10 14:28:06;;;;;;;11.48;2.95;;;;;;;25.90;35.88;100202.63;5113904;27;20437;-54
2022/10/10 14:30:36;;;;;;;10.95;2.85;;;;;;;25.44;36.10;100200.28;5115578;27;20055;-57
2022/10/10 14:33:10;;;;;;;10.57;3.03;;;;;;;24.91;37.06;100196.69;5112254;27;20057;-57
2022/10/10 14:35:40;;;;;;;6.97;3.00;;;;;;;24.36;38.21;100205.97;5116263;27;20111;-56
2022/10/10 14:38:07;;;;;;;8.95;2.67;;;;;;;23.95;39.02;100203.75;5112269;27;20490;-57
2022/10/10 14:40:35;;;;;;;11.32;2.85;;;;;;;23.92;39.06;100199.72;5115776;27;20075;-56
2022/10/10 14:43:02;;;;;;;6.35;2.40;;;;;;;23.68;39.95;100201.38;5114568;27;20051;-57
2022/10/10 14:45:29;;;;;;;7.78;2.92;;;;;;;23.70;39.43;100198.94;5115611;27;20051;-57
2022/10/10 14:47:58;;;;;;;8.68;2.75;;;;;;;24.01;39.64;100197.22;5116068;27;20074;-57
2022/10/10 14:50:28;;;;;;;9.63;2.70;;;;;;;24.09;38.96;100206.53;5116360;27;20055;-57
2022/10/10 14:52:55;;;;;;;9.75;2.95;;;;;;;23.93;39.07;100212.69;5114206;27;20059;-56
2022/10/10 14:55:22;;;;;;;8.40;2.58;;;;;;;24.02;39.28;100203.72;5117741;27;20054;-57
2022/10/10 14:57:50;;;;;;;9.90;3.10;;;;;;;23.92;39.12;100211.09;5113032;27;20507;-56
2022/10/10 15:00:19;;;;;;;11.15;2.90;;;;;;;23.83;40.15;100219.22;5114219;27;20407;-56
2022/10/10 15:02:47;;;;;;;5.55;2.88;;;;;;;23.95;39.65;100220.81;5116864;27;20059;-56
2022/10/10 15:05:16;;;;;;;7.75;2.70;;;;;;;23.97;40.03;100210.66;5114414;27;20056;-57
2022/10/10 15:07:44;;;;;;;6.10;2.50;;;;;;;24.17;39.85;100228.06;5108958;27;20055;-57
2022/10/10 15:10:14;;;;;;;6.22;2.70;;;;;;;24.22;39.28;100227.59;5113362;27;20406;-57
2022/10/10 15:12:44;;;;;;;10.57;3.17;;;;;;;24.27;39.87;100232.03;5114044;27;20495;-55